Time;durP1;ratioP1;P1;durP2;ratioP2;P2;SDS_P1;SDS_P2;PMS_P1;PMS_P2;Temp;Humidity;BMP_temperature;BMP_pressure;BME280_temperature;BME280_humidity;BME280_pressure;Samples;Min_cycle;Max_cycle;Signal;HPM_P1;HPM_P2
2022/12/26 00:01:54;;;;;;;118.32;62.58;;;;;;;;;;5031122;28;20108;-72
2022/12/26 00:04:20;;;;;;;123.38;67.10;;;;;;;;;;5021230;28;20079;-73
2022/12/26 00:06:46;;;;;;;127.30;66.80;;;;;;;;;;5034083;28;20088;-72
2022/12/26 00:09:12;;;;;;;132.63;74.03;;;;;;;;;;5035029;28;20095;-71
2022/12/26 00:11:38;;;;;;;139.27;74.78;;;;;;;;;;5050928;28;20029;-72
2022/12/26 00:14:11;;;;;;;137.30;76.30;;;;;;;;;;5046560;28;20441;-72
2022/12/26 00:16:39;;;;;;;137.00;79.57;;;;;;;;;;5045763;28;20505;-73
2022/12/26 00:19:05;;;;;;;168.43;96.40;;;;;;;;;;5053792;28;20028;-72
2022/12/26 00:21:31;;;;;;;164.38;90.78;;;;;;;;;;5054541;28;20079;-72
2022/12/26 00:23:58;;;;;;;161.75;93.28;;;;;;;;;;5054506;28;20017;-72
2022/12/26 00:26:26;;;;;;;181.10;104.05;;;;;;;;;;5054550;28;20033;-72
2022/12/26 00:28:53;;;;;;;181.45;110.85;;;;;;;;;;5054046;28;20485;-72
2022/12/26 00:31:23;;;;;;;191.25;114.22;;;;;;;;;;5054258;28;20041;-72
2022/12/26 00:33:49;;;;;;;187.82;109.30;;;;;;;;;;5053969;28;20509;-72
2022/12/26 00:36:21;;;;;;;220.65;133.38;;;;;;;;;;5053223;28;20029;-72
2022/12/26 00:38:48;;;;;;;239.98;146.10;;;;;;;;;;5033511;28;20084;-72
2022/12/26 00:41:15;;;;;;;200.48;121.72;;;;;;;;;;5034227;28;20104;-72
2022/12/26 00:43:41;;;;;;;185.23;107.22;;;;;;;;;;5048609;28;20053;-72
2022/12/26 00:46:08;;;;;;;182.75;113.88;;;;;;;;;;5033872;28;20563;-71
2022/12/26 00:48:34;;;;;;;171.77;104.65;;;;;;;;;;5022487;28;20041;-72
2022/12/26 00:51:00;;;;;;;185.20;105.63;;;;;;;;;;5016638;28;20026;-71
2022/12/26 00:53:26;;;;;;;191.45;112.70;;;;;;;;;;5031645;28;20053;-72
2022/12/26 00:55:53;;;;;;;190.18;110.85;;;;;;;;;;5033078;28;20503;-71
2022/12/26 00:58:20;;;;;;;187.70;109.00;;;;;;;;;;5033941;28;20038;-72
2022/12/26 01:00:46;;;;;;;179.93;105.95;;;;;;;;;;5033684;28;20443;-71
2022/12/26 01:03:13;;;;;;;175.65;102.10;;;;;;;;;;5033892;28;20060;-72
2022/12/26 01:05:48;;;;;;;178.45;100.43;;;;;;;;;;5033302;28;20110;-72
2022/12/26 01:08:14;;;;;;;174.13;101.10;;;;;;;;;;5028448;28;20048;-72
2022/12/26 01:10:42;;;;;;;182.55;103.03;;;;;;;;;;5033058;28;20022;-72
2022/12/26 01:13:08;;;;;;;187.63;103.38;;;;;;;;;;5033702;28;20127;-71
2022/12/26 01:15:34;;;;;;;170.35;99.05;;;;;;;;;;5027885;28;20561;-70
2022/12/26 01:18:00;;;;;;;161.10;90.55;;;;;;;;;;5032651;28;20095;-73
2022/12/26 01:20:26;;;;;;;153.93;90.75;;;;;;;;;;5034019;28;20514;-72
2022/12/26 01:22:54;;;;;;;165.60;94.70;;;;;;;;;;5050301;28;20110;-72
2022/12/26 01:25:20;;;;;;;182.18;108.03;;;;;;;;;;5033742;28;20025;-72
2022/12/26 01:27:46;;;;;;;201.27;114.60;;;;;;;;;;5033289;28;20041;-72
2022/12/26 01:30:12;;;;;;;176.90;96.00;;;;;;;;;;5033821;28;20039;-72
2022/12/26 01:32:38;;;;;;;148.05;79.22;;;;;;;;;;5033938;28;20068;-72
2022/12/26 01:35:04;;;;;;;137.55;78.05;;;;;;;;;;5033597;28;20025;-71
2022/12/26 01:37:31;;;;;;;142.55;81.32;;;;;;;;;;5033868;28;20438;-72
2022/12/26 01:39:57;;;;;;;161.63;89.93;;;;;;;;;;5034371;28;20017;-71
2022/12/26 01:42:25;;;;;;;142.95;82.68;;;;;;;;;;5033442;28;20033;-71
2022/12/26 01:45:05;;;;;;;151.82;84.80;;;;;;;;;;5033517;28;20021;-72
2022/12/26 01:47:36;;;;;;;157.88;89.85;;;;;;;;;;5033311;28;20029;-72
2022/12/26 01:50:03;;;;;;;142.98;77.40;;;;;;;;;;5033219;28;20098;-71
2022/12/26 01:52:36;;;;;;;143.50;81.72;;;;;;;;;;5038074;28;20113;-71
2022/12/26 01:55:07;;;;;;;110.40;63.40;;;;;;;;;;5033428;28;20052;-71
2022/12/26 01:57:38;;;;;;;120.10;67.28;;;;;;;;;;5033370;28;20114;-71
2022/12/26 02:00:05;;;;;;;121.18;68.70;;;;;;;;;;5044192;28;20057;-71
2022/12/26 02:05:33;;;;;;;109.97;66.22;;;;;;;;;;5051350;28;20032;-72
2022/12/26 02:08:10;;;;;;;120.93;68.82;;;;;;;;;;5054482;28;20041;-70
2022/12/26 02:10:50;;;;;;;121.43;70.22;;;;;;;;;;5045633;28;20036;-70
2022/12/26 02:13:17;;;;;;;121.15;70.40;;;;;;;;;;5051670;28;20127;-72
2022/12/26 02:15:43;;;;;;;119.20;65.45;;;;;;;;;;5032908;28;20033;-72
2022/12/26 02:18:08;;;;;;;116.65;64.03;;;;;;;;;;5033132;28;20033;-71
2022/12/26 02:20:43;;;;;;;99.50;54.80;;;;;;;;;;5032363;28;20379;-71
2022/12/26 02:23:09;;;;;;;106.20;59.65;;;;;;;;;;5032461;28;20033;-72
2022/12/26 02:25:50;;;;;;;98.20;55.60;;;;;;;;;;5030701;28;20026;-72
2022/12/26 02:28:43;;;;;;;107.78;61.13;;;;;;;;;;5032243;28;20534;-72
2022/12/26 02:31:16;;;;;;;111.95;62.17;;;;;;;;;;5032638;28;20505;-71
2022/12/26 02:33:44;;;;;;;97.05;53.13;;;;;;;;;;5032605;28;20033;-72
2022/12/26 02:36:21;;;;;;;97.68;52.63;;;;;;;;;;5030918;28;20036;-73
2022/12/26 02:39:16;;;;;;;107.00;59.72;;;;;;;;;;5031917;28;20033;-72
2022/12/26 02:41:50;;;;;;;117.43;64.97;;;;;;;;;;5032252;28;20037;-72
2022/12/26 02:47:40;;;;;;;117.10;62.70;;;;;;;;;;5032182;28;20612;-71
2022/12/26 03:14:59;;;;;;;84.50;48.53;;;;;;;;;;5031843;28;20125;-71
2022/12/26 03:17:28;;;;;;;86.03;47.58;;;;;;;;;;5031717;28;20483;-72
2022/12/26 03:20:03;;;;;;;78.80;46.22;;;;;;;;;;5031905;28;20702;-72
2022/12/26 03:22:36;;;;;;;75.88;43.17;;;;;;;;;;5031532;28;20076;-72
2022/12/26 03:27:52;;;;;;;105.93;55.75;;;;;;;;;;5033637;28;20487;-72
2022/12/26 03:33:02;;;;;;;100.97;54.28;;;;;;;;;;5044026;28;20041;-73
2022/12/26 03:35:31;;;;;;;111.20;57.58;;;;;;;;;;5051798;28;20381;-73
2022/12/26 03:38:18;;;;;;;102.82;58.67;;;;;;;;;;5051871;28;20063;-72
2022/12/26 04:20:00;;;;;;;86.03;46.83;;;;;;;;;;5054447;28;20025;-73
2022/12/26 04:45:14;;;;;;;90.13;49.15;;;;;;;;;;5053316;28;20503;-72
2022/12/26 04:50:10;;;;;;;81.05;47.88;;;;;;;;;;5054548;28;20021;-73
2022/12/26 04:50:26;;;;;;;72.80;44.40;;;;;;;;;;5054768;28;20036;-72
2022/12/26 04:52:57;;;;;;;77.55;43.90;;;;;;;;;;5054634;28;20466;-72
2022/12/26 04:55:32;;;;;;;65.93;42.00;;;;;;;;;;5054472;28;20039;-71
2022/12/26 04:57:58;;;;;;;76.63;44.22;;;;;;;;;;5053820;28;20037;-71
2022/12/26 05:00:26;;;;;;;76.20;39.72;;;;;;;;;;5052646;28;20039;-71
2022/12/26 05:11:16;;;;;;;67.20;40.50;;;;;;;;;;5053450;28;20416;-73
2022/12/26 05:13:42;;;;;;;72.72;44.33;;;;;;;;;;5053885;28;20028;-73
2022/12/26 05:29:59;;;;;;;42.00;25.35;;;;;;;;;;5054240;28;20095;-72
2022/12/26 05:35:09;;;;;;;35.58;22.77;;;;;;;;;;5054076;28;20078;-73
2022/12/26 05:37:35;;;;;;;42.92;24.92;;;;;;;;;;5052409;28;20020;-73
2022/12/26 05:40:01;;;;;;;45.75;28.05;;;;;;;;;;5045055;28;20172;-73
2022/12/26 05:42:27;;;;;;;53.97;28.25;;;;;;;;;;5034403;28;20036;-74
2022/12/26 05:44:53;;;;;;;43.53;25.60;;;;;;;;;;5016889;28;20112;-77
2022/12/26 05:47:18;;;;;;;44.17;26.50;;;;;;;;;;5033981;28;20095;-75
2022/12/26 05:49:44;;;;;;;44.17;26.85;;;;;;;;;;5033770;28;20509;-75
2022/12/26 05:52:10;;;;;;;43.63;26.00;;;;;;;;;;5033998;28;20042;-75
2022/12/26 05:54:36;;;;;;;41.90;26.33;;;;;;;;;;5033909;28;20049;-75
2022/12/26 05:57:02;;;;;;;40.80;26.08;;;;;;;;;;5033848;28;20021;-75
2022/12/26 05:59:29;;;;;;;43.10;26.13;;;;;;;;;;5033906;28;20161;-76
2022/12/26 06:01:55;;;;;;;47.90;27.27;;;;;;;;;;5033710;28;20506;-76
2022/12/26 06:04:20;;;;;;;37.33;22.45;;;;;;;;;;5033744;28;20037;-76
2022/12/26 06:06:48;;;;;;;30.95;20.23;;;;;;;;;;5033718;28;20029;-76
2022/12/26 06:09:13;;;;;;;31.90;20.10;;;;;;;;;;5048719;28;20034;-76
2022/12/26 06:11:39;;;;;;;33.70;20.55;;;;;;;;;;5033672;28;20108;-76
2022/12/26 06:14:05;;;;;;;37.28;21.58;;;;;;;;;;5032808;28;20068;-75
2022/12/26 06:16:31;;;;;;;44.35;25.30;;;;;;;;;;5033830;28;20029;-75
2022/12/26 06:18:57;;;;;;;41.40;23.58;;;;;;;;;;5032150;28;20368;-77
2022/12/26 06:21:23;;;;;;;54.17;29.42;;;;;;;;;;5033107;28;20025;-77
2022/12/26 06:23:49;;;;;;;56.67;30.52;;;;;;;;;;5033196;28;20041;-76
2022/12/26 06:26:16;;;;;;;50.78;28.40;;;;;;;;;;5033266;28;20056;-77
2022/12/26 06:28:42;;;;;;;42.55;24.50;;;;;;;;;;5032830;28;20045;-75
2022/12/26 06:31:13;;;;;;;36.45;23.52;;;;;;;;;;5033090;28;20037;-75
2022/12/26 06:33:39;;;;;;;44.30;27.38;;;;;;;;;;5033166;28;20491;-76
2022/12/26 06:36:08;;;;;;;46.30;27.08;;;;;;;;;;5033098;28;20421;-76
2022/12/26 06:38:35;;;;;;;57.20;32.58;;;;;;;;;;5033579;28;20044;-75
2022/12/26 06:41:04;;;;;;;67.97;37.30;;;;;;;;;;5033645;28;20087;-75
2022/12/26 06:43:30;;;;;;;70.13;40.45;;;;;;;;;;5033217;28;20034;-76
2022/12/26 06:45:57;;;;;;;59.53;36.75;;;;;;;;;;5032999;28;20024;-76
2022/12/26 06:48:24;;;;;;;58.97;35.17;;;;;;;;;;5032795;28;20562;-77
2022/12/26 06:50:50;;;;;;;55.42;34.00;;;;;;;;;;5032919;28;20029;-76
2022/12/26 06:53:16;;;;;;;52.22;32.42;;;;;;;;;;5041221;28;20517;-76
2022/12/26 06:55:41;;;;;;;49.67;32.65;;;;;;;;;;5053006;28;20031;-75
2022/12/26 06:58:09;;;;;;;57.00;36.55;;;;;;;;;;5053080;28;20507;-76
2022/12/26 07:00:36;;;;;;;61.40;33.92;;;;;;;;;;5052772;28;20024;-76
2022/12/26 07:03:02;;;;;;;56.92;34.45;;;;;;;;;;5052733;28;20431;-73
2022/12/26 07:05:28;;;;;;;52.35;33.47;;;;;;;;;;5052340;28;20039;-76
2022/12/26 07:07:53;;;;;;;50.80;30.85;;;;;;;;;;5052528;28;20431;-76
2022/12/26 07:10:20;;;;;;;46.67;29.20;;;;;;;;;;5052033;28;20056;-77
2022/12/26 07:12:47;;;;;;;46.72;33.13;;;;;;;;;;5052148;28;20405;-76
2022/12/26 07:15:14;;;;;;;43.72;29.20;;;;;;;;;;5051080;28;20033;-77
2022/12/26 07:17:40;;;;;;;66.05;38.65;;;;;;;;;;5051160;28;20036;-76
2022/12/26 07:20:06;;;;;;;132.43;64.05;;;;;;;;;;5052347;28;20433;-74
2022/12/26 07:22:32;;;;;;;103.68;52.50;;;;;;;;;;5052248;28;20029;-73
2022/12/26 07:24:58;;;;;;;84.18;44.65;;;;;;;;;;5052241;28;20024;-73
2022/12/26 07:27:24;;;;;;;61.70;36.58;;;;;;;;;;5035205;28;20083;-73
2022/12/26 07:29:50;;;;;;;55.88;32.10;;;;;;;;;;5032068;28;20115;-73
2022/12/26 07:32:16;;;;;;;50.55;29.88;;;;;;;;;;5049917;28;20063;-73
2022/12/26 07:34:42;;;;;;;48.08;29.70;;;;;;;;;;5037373;28;20017;-75
2022/12/26 07:37:08;;;;;;;52.60;29.38;;;;;;;;;;5030816;28;20037;-75
2022/12/26 07:39:36;;;;;;;49.15;30.65;;;;;;;;;;5031585;28;20028;-73
2022/12/26 07:42:03;;;;;;;52.20;31.65;;;;;;;;;;5051492;28;20037;-74
2022/12/26 07:44:32;;;;;;;45.92;31.00;;;;;;;;;;5050371;28;20434;-74
2022/12/26 07:46:59;;;;;;;47.72;32.47;;;;;;;;;;5051259;28;20037;-74
2022/12/26 07:49:25;;;;;;;56.45;33.90;;;;;;;;;;5051781;28;20025;-74
2022/12/26 07:51:51;;;;;;;57.60;35.60;;;;;;;;;;5051670;28;20037;-74
2022/12/26 07:54:18;;;;;;;58.85;33.85;;;;;;;;;;5052137;28;20017;-74
2022/12/26 07:56:44;;;;;;;44.15;28.00;;;;;;;;;;5052046;28;20132;-73
2022/12/26 07:59:15;;;;;;;55.72;33.92;;;;;;;;;;5036128;28;20376;-73
2022/12/26 08:01:42;;;;;;;51.45;31.20;;;;;;;;;;5030657;28;20187;-73
2022/12/26 08:04:09;;;;;;;50.22;31.00;;;;;;;;;;5030255;28;20051;-74
2022/12/26 08:06:35;;;;;;;46.47;29.92;;;;;;;;;;5051056;28;20044;-75
2022/12/26 08:09:02;;;;;;;42.40;26.95;;;;;;;;;;5035753;28;20128;-76
2022/12/26 08:11:32;;;;;;;42.40;27.90;;;;;;;;;;5035665;28;20025;-73
2022/12/26 08:13:58;;;;;;;49.17;29.13;;;;;;;;;;5051402;28;20040;-75
2022/12/26 08:16:25;;;;;;;39.38;25.95;;;;;;;;;;5051330;28;20037;-75
2022/12/26 08:18:50;;;;;;;36.92;24.42;;;;;;;;;;5051159;28;20027;-74
2022/12/26 08:21:16;;;;;;;36.78;24.05;;;;;;;;;;5051229;28;20111;-74
2022/12/26 08:23:42;;;;;;;36.42;21.45;;;;;;;;;;5049642;28;20021;-75
2022/12/26 08:26:11;;;;;;;30.63;19.85;;;;;;;;;;5051581;28;20177;-73
2022/12/26 08:28:41;;;;;;;29.38;17.65;;;;;;;;;;5051253;28;20037;-76
2022/12/26 08:31:09;;;;;;;29.40;18.25;;;;;;;;;;5051876;28;20037;-76
2022/12/26 08:33:35;;;;;;;25.00;16.92;;;;;;;;;;5051782;28;20047;-77
2022/12/26 08:36:07;;;;;;;28.27;17.33;;;;;;;;;;5051829;28;20033;-77
2022/12/26 08:38:33;;;;;;;27.17;17.52;;;;;;;;;;5052862;28;20037;-76
2022/12/26 08:40:59;;;;;;;22.90;14.70;;;;;;;;;;5033437;28;20017;-78
2022/12/26 08:43:25;;;;;;;23.23;16.27;;;;;;;;;;5033723;28;20449;-76
2022/12/26 08:45:59;;;;;;;23.00;15.07;;;;;;;;;;5035111;28;20471;-76
2022/12/26 08:48:25;;;;;;;25.48;16.40;;;;;;;;;;5034306;28;20041;-77
2022/12/26 08:51:15;;;;;;;36.05;17.75;;;;;;;;;;5034404;28;20029;-76
2022/12/26 08:53:41;;;;;;;29.38;17.60;;;;;;;;;;5036208;28;20033;-79
2022/12/26 08:56:15;;;;;;;25.58;17.98;;;;;;;;;;5051474;28;20044;-76
2022/12/26 08:58:41;;;;;;;30.23;18.80;;;;;;;;;;5051745;28;20035;-76
2022/12/26 09:01:15;;;;;;;38.92;24.27;;;;;;;;;;5053770;28;20501;-77
2022/12/26 09:03:42;;;;;;;36.58;20.98;;;;;;;;;;5050125;28;20094;-77
2022/12/26 09:06:09;;;;;;;36.72;20.75;;;;;;;;;;5049152;28;20078;-76
2022/12/26 09:08:37;;;;;;;35.33;20.70;;;;;;;;;;5042117;28;20045;-77
2022/12/26 09:11:11;;;;;;;34.38;22.02;;;;;;;;;;5032728;28;20114;-78
2022/12/26 09:13:41;;;;;;;34.22;20.80;;;;;;;;;;5051165;28;20033;-78
2022/12/26 09:16:16;;;;;;;29.08;19.85;;;;;;;;;;5047228;28;20116;-77
2022/12/26 09:18:43;;;;;;;27.10;19.33;;;;;;;;;;5044590;28;20510;-78
2022/12/26 09:21:11;;;;;;;44.83;23.27;;;;;;;;;;5049093;28;20055;-78
2022/12/26 09:23:38;;;;;;;35.75;22.35;;;;;;;;;;5046671;28;20060;-78
2022/12/26 09:26:12;;;;;;;34.17;22.45;;;;;;;;;;5051686;28;20036;-79
2022/12/26 09:28:40;;;;;;;40.20;25.30;;;;;;;;;;5048046;28;20132;-79
2022/12/26 09:31:10;;;;;;;37.72;23.67;;;;;;;;;;5041495;28;20491;-78
2022/12/26 09:33:37;;;;;;;39.78;25.50;;;;;;;;;;5041316;28;20030;-78
2022/12/26 09:36:10;;;;;;;37.88;23.90;;;;;;;;;;5044665;28;20070;-79
2022/12/26 09:38:36;;;;;;;35.22;22.02;;;;;;;;;;5048104;28;20037;-79
2022/12/26 09:41:42;;;;;;;35.85;24.27;;;;;;;;;;5051775;28;20029;-78
2022/12/26 09:44:40;;;;;;;38.45;26.90;;;;;;;;;;5062417;28;20043;-80
2022/12/26 09:47:32;;;;;;;44.85;28.65;;;;;;;;;;5047834;28;20094;-77
2022/12/26 09:50:03;;;;;;;;;;;;;;;;;;5048922;28;20533;-78
2022/12/26 09:52:49;;;;;;;33.22;22.50;;;;;;;;;;5045459;28;19917;-76
2022/12/26 09:55:26;;;;;;;33.17;20.50;;;;;;;;;;5040661;28;20044;-76
2022/12/26 09:57:56;;;;;;;38.08;22.77;;;;;;;;;;5048686;28;20502;-77
2022/12/26 10:00:32;;;;;;;32.85;22.17;;;;;;;;;;5045622;28;20039;-73
2022/12/26 10:02:59;;;;;;;39.80;24.10;;;;;;;;;;5049690;28;20037;-78
2022/12/26 10:05:37;;;;;;;44.20;25.98;;;;;;;;;;5049736;28;20021;-76
2022/12/26 10:08:21;;;;;;;38.55;21.90;;;;;;;;;;5045795;28;20449;-78
2022/12/26 10:10:51;;;;;;;;;;;;;;;;;;5045825;28;20034;-77
2022/12/26 10:13:27;;;;;;;35.78;21.92;;;;;;;;;;5044578;28;20348;-77
2022/12/26 10:16:02;;;;;;;34.33;20.58;;;;;;;;;;5043596;28;20045;-77
2022/12/26 10:18:36;;;;;;;29.83;19.17;;;;;;;;;;5049577;28;20033;-75
2022/12/26 10:21:04;;;;;;;28.95;20.23;;;;;;;;;;5048444;28;20098;-77
2022/12/26 10:23:39;;;;;;;32.83;19.67;;;;;;;;;;5041663;28;20025;-76
2022/12/26 10:26:14;;;;;;;31.63;19.42;;;;;;;;;;5044186;28;20041;-77
2022/12/26 10:29:01;;;;;;;33.75;20.85;;;;;;;;;;5046384;28;20057;-77
2022/12/26 10:31:47;;;;;;;30.80;20.73;;;;;;;;;;5048475;28;20104;-76
2022/12/26 10:34:35;;;;;;;36.08;22.48;;;;;;;;;;5051137;28;20044;-78
2022/12/26 10:37:24;;;;;;;35.15;22.73;;;;;;;;;;5041527;28;20171;-79
2022/12/26 10:40:10;;;;;;;34.28;23.30;;;;;;;;;;5044124;28;20033;-77
2022/12/26 10:42:43;;;;;;;39.85;25.30;;;;;;;;;;5043837;28;20040;-75
2022/12/26 10:45:30;;;;;;;36.45;23.73;;;;;;;;;;5042993;28;20033;-76
2022/12/26 10:47:56;;;;;;;42.88;26.45;;;;;;;;;;5036021;28;20046;-76
2022/12/26 10:50:30;;;;;;;40.45;24.92;;;;;;;;;;5048811;28;20483;-78
2022/12/26 10:52:58;;;;;;;41.80;25.13;;;;;;;;;;5043525;28;20112;-77
2022/12/26 10:55:34;;;;;;;37.75;25.55;;;;;;;;;;5040477;28;20039;-77
2022/12/26 10:58:22;;;;;;;39.20;26.10;;;;;;;;;;5046747;28;20037;-77
2022/12/26 11:00:49;;;;;;;40.40;26.65;;;;;;;;;;5046995;28;20040;-75
2022/12/26 11:03:18;;;;;;;39.25;25.17;;;;;;;;;;5047772;28;20108;-76
2022/12/26 11:05:54;;;;;;;38.92;26.27;;;;;;;;;;5043298;28;20037;-78
2022/12/26 11:08:29;;;;;;;37.78;25.33;;;;;;;;;;5048339;28;20033;-76
2022/12/26 11:11:19;;;;;;;38.47;23.40;;;;;;;;;;5037658;28;20073;-76
2022/12/26 11:13:53;;;;;;;40.72;24.63;;;;;;;;;;5069318;28;20174;-77
2022/12/26 11:16:29;;;;;;;36.17;25.30;;;;;;;;;;5044999;28;20486;-76
2022/12/26 11:18:55;;;;;;;35.85;23.85;;;;;;;;;;5036078;28;20380;-76
2022/12/26 11:21:24;;;;;;;36.33;23.00;;;;;;;;;;5044480;28;20498;-75
2022/12/26 11:24:09;;;;;;;38.28;23.17;;;;;;;;;;5058508;28;20064;-76
2022/12/26 11:26:37;;;;;;;34.72;21.95;;;;;;;;;;5040494;28;20256;-76
2022/12/26 11:29:20;;;;;;;29.75;20.90;;;;;;;;;;5040098;28;20549;-76
2022/12/26 11:31:55;;;;;;;33.85;22.52;;;;;;;;;;5048778;28;20033;-76
2022/12/26 11:34:33;;;;;;;33.40;22.42;;;;;;;;;;5054271;28;20075;-76
2022/12/26 11:36:59;;;;;;;35.15;21.05;;;;;;;;;;5038049;28;20033;-76
2022/12/26 11:39:29;;;;;;;35.80;20.63;;;;;;;;;;5049781;28;20025;-76
2022/12/26 11:41:56;;;;;;;28.70;18.92;;;;;;;;;;5047407;28;20402;-75
2022/12/26 11:44:35;;;;;;;31.45;21.33;;;;;;;;;;5040109;28;20033;-75
2022/12/26 11:47:14;;;;;;;34.83;22.75;;;;;;;;;;5040888;28;20352;-75
2022/12/26 11:49:45;;;;;;;35.50;22.30;;;;;;;;;;5057050;28;20034;-76
2022/12/26 11:52:34;;;;;;;32.35;21.30;;;;;;;;;;5046172;28;20108;-76
2022/12/26 11:55:00;;;;;;;32.10;22.33;;;;;;;;;;5050150;28;20048;-72
2022/12/26 11:57:31;;;;;;;40.28;22.67;;;;;;;;;;5042687;28;20029;-75
2022/12/26 12:00:17;;;;;;;35.55;23.27;;;;;;;;;;5040711;28;20540;-75
2022/12/26 12:02:44;;;;;;;36.00;22.17;;;;;;;;;;5045519;28;20112;-77
2022/12/26 12:05:27;;;;;;;33.97;23.00;;;;;;;;;;5040495;28;20112;-76
2022/12/26 12:07:56;;;;;;;37.45;23.90;;;;;;;;;;5050222;28;20115;-76
2022/12/26 12:10:46;;;;;;;38.53;24.35;;;;;;;;;;5043782;28;20478;-76
2022/12/26 12:13:12;;;;;;;35.50;23.38;;;;;;;;;;5042499;28;20112;-76
2022/12/26 12:16:29;;;;;;;31.85;20.88;;;;;;;;;;5048094;28;20116;-76
2022/12/26 12:18:55;;;;;;;34.47;20.83;;;;;;;;;;5036709;28;20552;-75
2022/12/26 12:21:40;;;;;;;32.58;21.88;;;;;;;;;;5043815;28;20116;-76
2022/12/26 12:24:25;;;;;;;34.50;23.92;;;;;;;;;;5060710;28;20063;-76
2022/12/26 12:27:14;;;;;;;42.83;26.65;;;;;;;;;;5047664;28;20036;-75
2022/12/26 12:30:02;;;;;;;45.45;27.80;;;;;;;;;;5035601;28;20124;-75
2022/12/26 12:32:57;;;;;;;49.47;29.10;;;;;;;;;;5033413;28;20037;-76
2022/12/26 12:35:41;;;;;;;45.03;29.52;;;;;;;;;;5035038;28;20479;-76
2022/12/26 12:38:25;;;;;;;46.00;30.90;;;;;;;;;;5035267;28;20038;-77
2022/12/26 12:41:10;;;;;;;48.22;30.65;;;;;;;;;;5033889;28;20030;-76
2022/12/26 12:43:54;;;;;;;49.65;32.20;;;;;;;;;;5034333;28;20025;-77
2022/12/26 12:46:38;;;;;;;52.67;34.13;;;;;;;;;;5035347;28;20056;-76
2022/12/26 12:49:18;;;;;;;57.92;34.72;;;;;;;;;;5035278;28;20065;-76
2022/12/26 12:52:17;;;;;;;52.08;34.88;;;;;;;;;;5034986;28;20057;-76
2022/12/26 12:55:07;;;;;;;52.97;34.17;;;;;;;;;;5027777;28;20053;-75
2022/12/26 12:57:44;;;;;;;63.75;36.20;;;;;;;;;;5033546;28;20052;-76
2022/12/26 13:00:22;;;;;;;57.45;34.75;;;;;;;;;;5035219;28;20105;-77
2022/12/26 13:02:59;;;;;;;53.70;36.17;;;;;;;;;;5035365;28;20029;-75
2022/12/26 13:05:34;;;;;;;53.58;35.45;;;;;;;;;;5035498;28;20038;-75
2022/12/26 13:08:23;;;;;;;58.78;36.92;;;;;;;;;;5033942;28;20051;-76
2022/12/26 13:11:00;;;;;;;57.15;36.33;;;;;;;;;;5034894;28;20076;-75
2022/12/26 13:14:27;;;;;;;60.03;36.15;;;;;;;;;;5035070;28;20049;-75
2022/12/26 13:16:57;;;;;;;56.00;37.08;;;;;;;;;;5025149;28;20049;-76
2022/12/26 13:19:39;;;;;;;61.72;37.58;;;;;;;;;;5033476;28;20372;-76
2022/12/26 13:22:13;;;;;;;59.33;39.40;;;;;;;;;;5034425;28;20033;-76
2022/12/26 13:24:45;;;;;;;73.07;40.50;;;;;;;;;;5034751;28;20036;-76
2022/12/26 13:27:28;;;;;;;82.32;43.45;;;;;;;;;;5034736;28;20044;-76
2022/12/26 13:29:54;;;;;;;45.72;28.48;;;;;;;;;;5041752;28;20061;-76
2022/12/26 13:32:24;;;;;;;41.60;26.80;;;;;;;;;;5054290;28;20084;-77
2022/12/26 13:34:52;;;;;;;43.90;26.83;;;;;;;;;;5053101;28;20037;-78
2022/12/26 13:37:36;;;;;;;36.50;23.98;;;;;;;;;;5053117;28;20021;-76
2022/12/26 13:40:06;;;;;;;36.55;23.38;;;;;;;;;;5054202;28;20033;-77
2022/12/26 13:45:53;;;;;;;33.95;22.08;;;;;;;;;;5049606;28;20044;-77
2022/12/26 13:48:26;;;;;;;35.85;23.85;;;;;;;;;;5054476;28;20040;-77
2022/12/26 13:50:58;;;;;;;35.70;23.77;;;;;;;;;;5054668;28;20411;-80
2022/12/26 13:53:24;;;;;;;35.70;22.15;;;;;;;;;;5056883;28;20382;-75
2022/12/26 13:55:55;;;;;;;38.25;25.00;;;;;;;;;;5056509;28;20029;-78
2022/12/26 13:58:29;;;;;;;32.33;20.83;;;;;;;;;;5053236;28;20036;-77
2022/12/26 14:01:20;;;;;;;31.95;21.42;;;;;;;;;;5053864;28;20063;-80
2022/12/26 14:04:10;;;;;;;35.28;21.38;;;;;;;;;;5059711;28;20633;-80
2022/12/26 14:07:13;;;;;;;32.25;20.45;;;;;;;;;;5048299;28;20555;-77
2022/12/26 14:09:56;;;;;;;30.67;19.70;;;;;;;;;;5034651;28;20420;-79
2022/12/26 14:12:41;;;;;;;28.35;19.00;;;;;;;;;;5034094;28;20116;-79
2022/12/26 14:15:28;;;;;;;27.10;18.05;;;;;;;;;;5033713;28;20033;-78
2022/12/26 14:18:31;;;;;;;33.70;18.67;;;;;;;;;;5046098;28;20440;-77
2022/12/26 14:21:18;;;;;;;27.90;18.38;;;;;;;;;;5053572;28;20025;-79
2022/12/26 14:23:56;;;;;;;28.17;18.65;;;;;;;;;;5053397;28;20036;-74
2022/12/26 14:26:32;;;;;;;28.27;18.40;;;;;;;;;;5053023;28;20115;-74
2022/12/26 14:29:06;;;;;;;;;;;;;;;;;;5053115;28;20090;-74
2022/12/26 14:32:10;;;;;;;33.80;18.75;;;;;;;;;;5052851;28;20003;-78
2022/12/26 14:34:41;;;;;;;31.42;17.98;;;;;;;;;;5049794;28;20032;-77
2022/12/26 14:37:48;;;;;;;27.35;16.02;;;;;;;;;;5051451;28;20033;-76
2022/12/26 14:40:29;;;;;;;25.80;16.23;;;;;;;;;;4991485;28;20042;-76
2022/12/26 14:43:10;;;;;;;25.30;17.17;;;;;;;;;;5049334;28;20111;-76
2022/12/26 14:45:40;;;;;;;26.25;17.08;;;;;;;;;;5048811;28;20025;-75
2022/12/26 14:48:16;;;;;;;22.15;14.90;;;;;;;;;;5033358;28;20072;-77
2022/12/26 14:50:48;;;;;;;22.58;14.18;;;;;;;;;;5032742;28;20061;-75
2022/12/26 14:53:31;;;;;;;23.33;15.32;;;;;;;;;;5032004;28;20052;-74
2022/12/26 14:56:20;;;;;;;21.17;14.38;;;;;;;;;;5034202;28;20500;-73
2022/12/26 14:58:47;;;;;;;22.90;16.17;;;;;;;;;;5041371;28;20080;-75
2022/12/26 15:01:16;;;;;;;26.65;17.27;;;;;;;;;;5049605;28;20025;-74
2022/12/26 15:03:54;;;;;;;25.60;16.98;;;;;;;;;;5050600;28;20048;-74
2022/12/26 15:06:20;;;;;;;26.15;16.85;;;;;;;;;;5034089;28;20033;-73
2022/12/26 15:09:10;;;;;;;25.13;15.60;;;;;;;;;;5052275;28;20086;-74
2022/12/26 15:11:50;;;;;;;23.83;15.40;;;;;;;;;;5052991;28;20045;-76
2022/12/26 15:14:29;;;;;;;23.00;14.23;;;;;;;;;;5052361;28;20120;-77
2022/12/26 15:17:18;;;;;;;34.03;20.73;;;;;;;;;;5052440;28;20033;-75
2022/12/26 15:20:08;;;;;;;34.63;22.92;;;;;;;;;;5038497;28;20033;-74
2022/12/26 15:22:55;;;;;;;38.45;25.63;;;;;;;;;;5050634;28;20035;-76
2022/12/26 15:26:03;;;;;;;47.13;30.77;;;;;;;;;;5049328;28;20124;-76
2022/12/26 15:28:54;;;;;;;42.40;27.08;;;;;;;;;;5020076;28;20400;-75
2022/12/26 15:31:34;;;;;;;43.78;28.50;;;;;;;;;;5050323;28;20092;-74
2022/12/26 15:34:24;;;;;;;44.28;28.63;;;;;;;;;;5050370;28;20029;-76
2022/12/26 15:37:07;;;;;;;40.13;26.77;;;;;;;;;;5048431;28;20078;-75
2022/12/26 15:39:50;;;;;;;37.33;25.27;;;;;;;;;;5049496;28;20025;-76
2022/12/26 15:42:16;;;;;;;40.45;26.02;;;;;;;;;;5049591;28;20059;-76
2022/12/26 15:45:02;;;;;;;41.17;27.30;;;;;;;;;;5051817;28;20017;-75
2022/12/26 15:47:46;;;;;;;41.10;27.63;;;;;;;;;;5055304;28;20039;-76
2022/12/26 15:50:22;;;;;;;40.30;25.25;;;;;;;;;;5063877;28;20043;-76
2022/12/26 15:53:15;;;;;;;39.67;25.40;;;;;;;;;;5069659;28;20037;-74
2022/12/26 15:56:15;;;;;;;41.00;25.83;;;;;;;;;;5051433;28;20036;-73
2022/12/26 15:59:00;;;;;;;37.47;23.88;;;;;;;;;;5063320;28;20055;-72
2022/12/26 16:01:43;;;;;;;40.20;26.35;;;;;;;;;;5057643;28;20029;-74
2022/12/26 16:04:51;;;;;;;44.42;28.92;;;;;;;;;;5057467;28;20033;-73
2022/12/26 16:07:38;;;;;;;52.85;32.30;;;;;;;;;;4981871;28;20035;-74
2022/12/26 16:10:35;;;;;;;65.60;41.63;;;;;;;;;;4978791;28;20085;-72
2022/12/26 16:13:13;;;;;;;66.68;43.83;;;;;;;;;;5046775;28;20052;-72
2022/12/26 16:15:55;;;;;;;64.13;33.55;;;;;;;;;;5053073;28;20443;-73
2022/12/26 16:18:29;;;;;;;64.07;31.85;;;;;;;;;;5053488;28;20548;-73
2022/12/26 16:23:45;;;;;;;57.33;31.05;;;;;;;;;;5063182;28;20037;-73
2022/12/26 16:26:27;;;;;;;49.65;30.85;;;;;;;;;;5051922;28;20099;-73
2022/12/26 16:28:56;;;;;;;59.83;34.00;;;;;;;;;;5054299;28;20041;-73
2022/12/26 16:31:29;;;;;;;79.47;45.03;;;;;;;;;;5055144;28;20021;-72
2022/12/26 16:33:58;;;;;;;71.00;43.97;;;;;;;;;;5056576;28;20432;-73
2022/12/26 16:36:34;;;;;;;73.85;43.38;;;;;;;;;;5055482;28;20112;-72
2022/12/26 16:39:00;;;;;;;70.90;42.78;;;;;;;;;;5054589;28;20047;-73
2022/12/26 16:41:30;;;;;;;97.57;57.88;;;;;;;;;;5054881;28;20028;-72
2022/12/26 16:44:25;;;;;;;99.63;59.30;;;;;;;;;;5054005;28;20182;-73
2022/12/26 16:46:51;;;;;;;97.50;57.30;;;;;;;;;;5051890;28;20482;-72
2022/12/26 16:49:24;;;;;;;94.15;52.00;;;;;;;;;;5054266;28;20036;-73
2022/12/26 16:51:51;;;;;;;88.25;50.85;;;;;;;;;;5052509;28;20111;-72
2022/12/26 16:54:23;;;;;;;89.60;51.92;;;;;;;;;;5054373;28;20104;-73
2022/12/26 16:57:03;;;;;;;89.20;44.08;;;;;;;;;;5066725;28;20036;-72
2022/12/26 16:59:50;;;;;;;61.50;36.90;;;;;;;;;;5051893;28;20051;-74
2022/12/26 17:02:36;;;;;;;94.95;52.10;;;;;;;;;;5054228;28;20061;-72